sensor_id;sensor_type;location;lat;lon;timestamp;P1;durP1;ratioP1;P2;durP2;ratioP2
69989;SDS011;57331;52.054;5.294;2022-09-09T00:01:59;6.82;;;2.13;;
69989;SDS011;57331;52.054;5.294;2022-09-09T00:04:58;4.30;;;2.10;;
69989;SDS011;57331;52.054;5.294;2022-09-09T00:07:48;5.93;;;2.20;;
69989;SDS011;57331;52.054;5.294;2022-09-09T00:10:34;6.20;;;2.53;;
69989;SDS011;57331;52.054;5.294;2022-09-09T00:15:48;5.47;;;2.20;;
69989;SDS011;57331;52.054;5.294;2022-09-09T00:18:27;7.15;;;2.20;;
69989;SDS011;57331;52.054;5.294;2022-09-09T00:21:08;7.63;;;2.53;;
69989;SDS011;57331;52.054;5.294;2022-09-09T00:23:45;5.70;;;2.53;;
69989;SDS011;57331;52.054;5.294;2022-09-09T00:31:30;5.78;;;2.22;;
69989;SDS011;57331;52.054;5.294;2022-09-09T00:33:58;6.20;;;2.30;;
69989;SDS011;57331;52.054;5.294;2022-09-09T00:36:30;6.70;;;2.67;;
69989;SDS011;57331;52.054;5.294;2022-09-09T00:39:00;5.95;;;2.40;;
69989;SDS011;57331;52.054;5.294;2022-09-09T00:44:27;6.00;;;2.25;;
69989;SDS011;57331;52.054;5.294;2022-09-09T00:46:59;6.43;;;2.23;;
69989;SDS011;57331;52.054;5.294;2022-09-09T00:49:35;5.63;;;2.20;;
69989;SDS011;57331;52.054;5.294;2022-09-09T00:52:11;6.47;;;2.50;;
69989;SDS011;57331;52.054;5.294;2022-09-09T00:57:31;7.68;;;2.85;;
69989;SDS011;57331;52.054;5.294;2022-09-09T01:02:55;5.38;;;2.17;;
69989;SDS011;57331;52.054;5.294;2022-09-09T01:07:59;5.60;;;2.22;;
69989;SDS011;57331;52.054;5.294;2022-09-09T01:10:36;5.47;;;2.22;;
69989;SDS011;57331;52.054;5.294;2022-09-09T01:13:24;8.57;;;2.57;;
69989;SDS011;57331;52.054;5.294;2022-09-09T01:15:53;9.73;;;2.75;;
69989;SDS011;57331;52.054;5.294;2022-09-09T01:18:28;5.97;;;2.40;;
69989;SDS011;57331;52.054;5.294;2022-09-09T01:26:31;7.00;;;2.40;;
69989;SDS011;57331;52.054;5.294;2022-09-09T01:29:09;6.72;;;2.75;;
69989;SDS011;57331;52.054;5.294;2022-09-09T01:31:56;6.45;;;2.80;;
69989;SDS011;57331;52.054;5.294;2022-09-09T01:34:26;5.95;;;2.50;;
69989;SDS011;57331;52.054;5.294;2022-09-09T01:37:07;7.28;;;2.95;;
69989;SDS011;57331;52.054;5.294;2022-09-09T01:39:38;6.63;;;2.70;;
69989;SDS011;57331;52.054;5.294;2022-09-09T01:42:10;6.68;;;2.55;;
69989;SDS011;57331;52.054;5.294;2022-09-09T01:44:40;7.80;;;2.75;;
69989;SDS011;57331;52.054;5.294;2022-09-09T01:47:07;6.32;;;2.70;;
69989;SDS011;57331;52.054;5.294;2022-09-09T01:49:49;7.97;;;3.03;;
69989;SDS011;57331;52.054;5.294;2022-09-09T01:52:21;5.80;;;2.20;;
69989;SDS011;57331;52.054;5.294;2022-09-09T01:54:49;7.03;;;3.13;;
69989;SDS011;57331;52.054;5.294;2022-09-09T02:00:42;6.75;;;2.58;;
69989;SDS011;57331;52.054;5.294;2022-09-09T02:03:27;7.95;;;2.88;;
69989;SDS011;57331;52.054;5.294;2022-09-09T02:06:08;6.83;;;2.70;;
69989;SDS011;57331;52.054;5.294;2022-09-09T02:09:12;7.20;;;2.75;;
69989;SDS011;57331;52.054;5.294;2022-09-09T02:11:39;9.38;;;2.80;;
69989;SDS011;57331;52.054;5.294;2022-09-09T02:14:22;7.57;;;2.50;;
69989;SDS011;57331;52.054;5.294;2022-09-09T02:16:55;6.00;;;2.65;;
69989;SDS011;57331;52.054;5.294;2022-09-09T02:19:39;6.47;;;2.33;;
69989;SDS011;57331;52.054;5.294;2022-09-09T02:22:21;7.75;;;2.67;;
69989;SDS011;57331;52.054;5.294;2022-09-09T02:24:50;7.35;;;2.78;;
69989;SDS011;57331;52.054;5.294;2022-09-09T02:27:25;9.10;;;3.28;;
69989;SDS011;57331;52.054;5.294;2022-09-09T02:29:52;9.57;;;2.90;;
69989;SDS011;57331;52.054;5.294;2022-09-09T02:32:32;8.20;;;3.30;;
69989;SDS011;57331;52.054;5.294;2022-09-09T02:35:14;7.00;;;2.60;;
69989;SDS011;57331;52.054;5.294;2022-09-09T02:37:44;6.97;;;3.03;;
69989;SDS011;57331;52.054;5.294;2022-09-09T02:40:13;7.03;;;3.17;;
69989;SDS011;57331;52.054;5.294;2022-09-09T02:42:48;7.75;;;3.38;;
69989;SDS011;57331;52.054;5.294;2022-09-09T02:45:22;8.83;;;3.67;;
69989;SDS011;57331;52.054;5.294;2022-09-09T02:50:48;9.27;;;3.55;;
69989;SDS011;57331;52.054;5.294;2022-09-09T02:53:48;12.30;;;4.03;;
69989;SDS011;57331;52.054;5.294;2022-09-09T02:56:27;7.45;;;3.33;;
69989;SDS011;57331;52.054;5.294;2022-09-09T02:58:57;11.23;;;3.93;;
69989;SDS011;57331;52.054;5.294;2022-09-09T03:01:25;15.98;;;3.80;;
69989;SDS011;57331;52.054;5.294;2022-09-09T03:03:53;12.45;;;4.22;;
69989;SDS011;57331;52.054;5.294;2022-09-09T03:06:22;8.75;;;4.25;;
69989;SDS011;57331;52.054;5.294;2022-09-09T03:08:56;11.18;;;4.68;;
69989;SDS011;57331;52.054;5.294;2022-09-09T03:11:27;9.97;;;4.10;;
69989;SDS011;57331;52.054;5.294;2022-09-09T03:13:54;12.30;;;4.40;;
69989;SDS011;57331;52.054;5.294;2022-09-09T03:16:24;8.50;;;4.47;;
69989;SDS011;57331;52.054;5.294;2022-09-09T03:18:52;9.68;;;4.30;;
69989;SDS011;57331;52.054;5.294;2022-09-09T03:21:19;12.98;;;4.05;;
69989;SDS011;57331;52.054;5.294;2022-09-09T03:23:48;8.63;;;3.60;;
69989;SDS011;57331;52.054;5.294;2022-09-09T03:26:15;10.15;;;4.38;;
69989;SDS011;57331;52.054;5.294;2022-09-09T03:28:44;10.30;;;4.07;;
69989;SDS011;57331;52.054;5.294;2022-09-09T03:31:15;12.32;;;4.20;;
69989;SDS011;57331;52.054;5.294;2022-09-09T03:33:43;10.70;;;4.20;;
69989;SDS011;57331;52.054;5.294;2022-09-09T03:36:13;13.90;;;4.60;;
69989;SDS011;57331;52.054;5.294;2022-09-09T03:38:41;10.75;;;4.28;;
69989;SDS011;57331;52.054;5.294;2022-09-09T03:41:09;10.70;;;4.53;;
69989;SDS011;57331;52.054;5.294;2022-09-09T03:43:37;9.73;;;4.53;;
69989;SDS011;57331;52.054;5.294;2022-09-09T03:46:06;9.95;;;4.82;;
69989;SDS011;57331;52.054;5.294;2022-09-09T03:48:33;12.20;;;5.07;;
69989;SDS011;57331;52.054;5.294;2022-09-09T03:51:02;10.55;;;4.07;;
69989;SDS011;57331;52.054;5.294;2022-09-09T03:53:31;13.52;;;5.55;;
69989;SDS011;57331;52.054;5.294;2022-09-09T03:56:00;9.20;;;4.63;;
69989;SDS011;57331;52.054;5.294;2022-09-09T03:58:29;14.20;;;5.97;;
69989;SDS011;57331;52.054;5.294;2022-09-09T04:03:28;11.50;;;5.22;;
69989;SDS011;57331;52.054;5.294;2022-09-09T04:05:57;12.43;;;4.97;;
69989;SDS011;57331;52.054;5.294;2022-09-09T04:08:27;12.05;;;5.18;;
69989;SDS011;57331;52.054;5.294;2022-09-09T04:10:56;9.27;;;4.93;;
69989;SDS011;57331;52.054;5.294;2022-09-09T04:13:25;11.67;;;4.80;;
69989;SDS011;57331;52.054;5.294;2022-09-09T04:15:55;11.88;;;4.07;;
69989;SDS011;57331;52.054;5.294;2022-09-09T04:18:26;13.60;;;4.78;;
69989;SDS011;57331;52.054;5.294;2022-09-09T04:20:57;10.77;;;4.97;;
69989;SDS011;57331;52.054;5.294;2022-09-09T04:23:26;10.70;;;4.90;;
69989;SDS011;57331;52.054;5.294;2022-09-09T04:25:58;9.10;;;4.97;;
69989;SDS011;57331;52.054;5.294;2022-09-09T04:28:30;10.95;;;4.63;;
69989;SDS011;57331;52.054;5.294;2022-09-09T04:31:05;11.00;;;4.93;;
69989;SDS011;57331;52.054;5.294;2022-09-09T04:33:37;11.27;;;5.10;;
69989;SDS011;57331;52.054;5.294;2022-09-09T04:36:07;13.52;;;4.95;;
69989;SDS011;57331;52.054;5.294;2022-09-09T04:38:35;13.53;;;5.17;;
69989;SDS011;57331;52.054;5.294;2022-09-09T04:41:03;11.88;;;4.88;;
69989;SDS011;57331;52.054;5.294;2022-09-09T04:43:31;11.15;;;4.80;;
69989;SDS011;57331;52.054;5.294;2022-09-09T04:46:01;13.10;;;5.50;;
69989;SDS011;57331;52.054;5.294;2022-09-09T04:48:28;11.68;;;4.78;;
69989;SDS011;57331;52.054;5.294;2022-09-09T04:50:59;10.17;;;4.43;;
69989;SDS011;57331;52.054;5.294;2022-09-09T04:53:30;12.52;;;4.70;;
69989;SDS011;57331;52.054;5.294;2022-09-09T04:56:01;11.75;;;4.90;;
69989;SDS011;57331;52.054;5.294;2022-09-09T04:58:43;10.93;;;4.88;;
69989;SDS011;57331;52.054;5.294;2022-09-09T05:01:13;10.82;;;4.63;;
69989;SDS011;57331;52.054;5.294;2022-09-09T05:03:44;11.17;;;4.90;;
69989;SDS011;57331;52.054;5.294;2022-09-09T05:06:16;13.57;;;5.18;;
69989;SDS011;57331;52.054;5.294;2022-09-09T05:08:46;9.38;;;4.32;;
69989;SDS011;57331;52.054;5.294;2022-09-09T05:11:20;10.05;;;4.35;;
69989;SDS011;57331;52.054;5.294;2022-09-09T05:13:56;13.30;;;4.25;;
69989;SDS011;57331;52.054;5.294;2022-09-09T05:16:23;9.10;;;4.60;;
69989;SDS011;57331;52.054;5.294;2022-09-09T05:18:50;10.52;;;4.07;;
69989;SDS011;57331;52.054;5.294;2022-09-09T05:21:18;11.85;;;4.22;;
69989;SDS011;57331;52.054;5.294;2022-09-09T05:23:46;11.38;;;4.65;;
69989;SDS011;57331;52.054;5.294;2022-09-09T05:26:15;12.13;;;4.05;;
69989;SDS011;57331;52.054;5.294;2022-09-09T05:28:46;11.60;;;4.00;;
69989;SDS011;57331;52.054;5.294;2022-09-09T05:31:14;13.35;;;4.05;;
69989;SDS011;57331;52.054;5.294;2022-09-09T05:33:45;12.38;;;3.50;;
69989;SDS011;57331;52.054;5.294;2022-09-09T05:36:19;15.88;;;3.97;;
69989;SDS011;57331;52.054;5.294;2022-09-09T05:38:51;13.40;;;3.80;;
69989;SDS011;57331;52.054;5.294;2022-09-09T05:41:20;11.90;;;3.53;;
69989;SDS011;57331;52.054;5.294;2022-09-09T05:43:51;12.55;;;3.75;;
69989;SDS011;57331;52.054;5.294;2022-09-09T05:46:20;10.70;;;3.58;;
69989;SDS011;57331;52.054;5.294;2022-09-09T05:48:50;12.38;;;3.85;;
69989;SDS011;57331;52.054;5.294;2022-09-09T05:51:20;14.20;;;3.75;;
69989;SDS011;57331;52.054;5.294;2022-09-09T05:53:50;9.40;;;3.43;;
69989;SDS011;57331;52.054;5.294;2022-09-09T05:56:29;9.05;;;3.25;;
69989;SDS011;57331;52.054;5.294;2022-09-09T05:58:57;13.57;;;3.40;;
69989;SDS011;57331;52.054;5.294;2022-09-09T06:01:31;10.68;;;3.35;;
69989;SDS011;57331;52.054;5.294;2022-09-09T06:04:00;9.02;;;3.35;;
69989;SDS011;57331;52.054;5.294;2022-09-09T06:06:35;11.77;;;3.50;;
69989;SDS011;57331;52.054;5.294;2022-09-09T06:09:12;17.13;;;3.72;;
69989;SDS011;57331;52.054;5.294;2022-09-09T06:11:41;10.13;;;3.58;;
69989;SDS011;57331;52.054;5.294;2022-09-09T06:14:09;10.65;;;3.63;;
69989;SDS011;57331;52.054;5.294;2022-09-09T06:16:38;10.85;;;3.33;;
69989;SDS011;57331;52.054;5.294;2022-09-09T06:19:13;9.33;;;2.70;;
69989;SDS011;57331;52.054;5.294;2022-09-09T06:21:40;11.60;;;3.90;;
69989;SDS011;57331;52.054;5.294;2022-09-09T06:24:09;10.05;;;3.47;;
69989;SDS011;57331;52.054;5.294;2022-09-09T06:26:40;14.68;;;3.90;;
69989;SDS011;57331;52.054;5.294;2022-09-09T06:29:09;13.20;;;3.25;;
69989;SDS011;57331;52.054;5.294;2022-09-09T06:31:37;8.23;;;2.67;;
69989;SDS011;57331;52.054;5.294;2022-09-09T06:34:11;12.60;;;3.15;;
69989;SDS011;57331;52.054;5.294;2022-09-09T06:36:41;10.15;;;3.45;;
69989;SDS011;57331;52.054;5.294;2022-09-09T06:39:08;11.05;;;2.95;;
69989;SDS011;57331;52.054;5.294;2022-09-09T06:41:40;11.02;;;3.05;;
69989;SDS011;57331;52.054;5.294;2022-09-09T06:44:27;7.90;;;2.70;;
69989;SDS011;57331;52.054;5.294;2022-09-09T07:20:16;15.80;;;3.27;;
69989;SDS011;57331;52.054;5.294;2022-09-09T07:22:45;9.30;;;3.00;;
69989;SDS011;57331;52.054;5.294;2022-09-09T07:25:13;10.20;;;3.10;;
69989;SDS011;57331;52.054;5.294;2022-09-09T07:27:43;10.30;;;2.80;;
69989;SDS011;57331;52.054;5.294;2022-09-09T07:30:11;9.40;;;3.53;;
69989;SDS011;57331;52.054;5.294;2022-09-09T07:32:50;8.37;;;2.70;;
69989;SDS011;57331;52.054;5.294;2022-09-09T07:35:18;14.27;;;3.20;;
69989;SDS011;57331;52.054;5.294;2022-09-09T07:37:46;8.73;;;2.95;;
69989;SDS011;57331;52.054;5.294;2022-09-09T07:40:17;12.80;;;3.65;;
69989;SDS011;57331;52.054;5.294;2022-09-09T07:42:47;12.00;;;4.20;;
69989;SDS011;57331;52.054;5.294;2022-09-09T07:45:14;10.63;;;3.30;;
69989;SDS011;57331;52.054;5.294;2022-09-09T07:47:42;10.18;;;3.30;;
69989;SDS011;57331;52.054;5.294;2022-09-09T07:50:10;10.05;;;2.90;;
69989;SDS011;57331;52.054;5.294;2022-09-09T07:52:37;9.80;;;3.30;;
69989;SDS011;57331;52.054;5.294;2022-09-09T07:55:06;10.05;;;2.92;;
69989;SDS011;57331;52.054;5.294;2022-09-09T07:57:34;8.83;;;2.97;;
69989;SDS011;57331;52.054;5.294;2022-09-09T08:00:03;9.25;;;2.67;;
69989;SDS011;57331;52.054;5.294;2022-09-09T08:02:37;14.20;;;3.17;;
69989;SDS011;57331;52.054;5.294;2022-09-09T08:05:05;9.57;;;3.15;;
69989;SDS011;57331;52.054;5.294;2022-09-09T08:07:32;12.80;;;3.38;;
69989;SDS011;57331;52.054;5.294;2022-09-09T08:09:59;10.77;;;2.97;;
69989;SDS011;57331;52.054;5.294;2022-09-09T08:12:30;10.07;;;2.72;;
69989;SDS011;57331;52.054;5.294;2022-09-09T08:14:56;9.75;;;3.35;;
69989;SDS011;57331;52.054;5.294;2022-09-09T08:17:31;13.30;;;2.72;;
69989;SDS011;57331;52.054;5.294;2022-09-09T08:20:02;8.60;;;2.45;;
69989;SDS011;57331;52.054;5.294;2022-09-09T08:22:33;10.27;;;3.43;;
69989;SDS011;57331;52.054;5.294;2022-09-09T08:25:01;12.10;;;2.92;;
69989;SDS011;57331;52.054;5.294;2022-09-09T08:27:34;9.57;;;2.45;;
69989;SDS011;57331;52.054;5.294;2022-09-09T08:30:02;11.25;;;2.65;;
69989;SDS011;57331;52.054;5.294;2022-09-09T08:32:30;8.30;;;2.80;;
69989;SDS011;57331;52.054;5.294;2022-09-09T08:34:57;8.80;;;2.60;;
69989;SDS011;57331;52.054;5.294;2022-09-09T08:37:27;9.13;;;2.92;;
69989;SDS011;57331;52.054;5.294;2022-09-09T08:39:55;10.27;;;2.67;;
69989;SDS011;57331;52.054;5.294;2022-09-09T09:27:31;10.32;;;2.42;;
69989;SDS011;57331;52.054;5.294;2022-09-09T09:30:29;8.77;;;2.80;;
69989;SDS011;57331;52.054;5.294;2022-09-09T09:33:25;10.10;;;2.65;;
69989;SDS011;57331;52.054;5.294;2022-09-09T09:35:53;9.73;;;2.78;;
69989;SDS011;57331;52.054;5.294;2022-09-09T09:38:25;7.80;;;2.30;;
69989;SDS011;57331;52.054;5.294;2022-09-09T09:41:14;10.85;;;2.50;;
69989;SDS011;57331;52.054;5.294;2022-09-09T09:43:41;10.60;;;2.78;;
69989;SDS011;57331;52.054;5.294;2022-09-09T09:46:22;12.85;;;3.05;;
69989;SDS011;57331;52.054;5.294;2022-09-09T09:49:05;11.20;;;3.20;;
69989;SDS011;57331;52.054;5.294;2022-09-09T09:51:37;15.35;;;3.38;;
69989;SDS011;57331;52.054;5.294;2022-09-09T09:57:12;12.95;;;4.53;;
69989;SDS011;57331;52.054;5.294;2022-09-09T09:59:43;10.20;;;2.92;;
69989;SDS011;57331;52.054;5.294;2022-09-09T10:02:20;11.15;;;2.90;;
69989;SDS011;57331;52.054;5.294;2022-09-09T10:05:03;8.13;;;2.63;;
69989;SDS011;57331;52.054;5.294;2022-09-09T10:07:34;10.10;;;2.40;;
69989;SDS011;57331;52.054;5.294;2022-09-09T10:10:03;9.00;;;2.80;;
69989;SDS011;57331;52.054;5.294;2022-09-09T10:12:44;7.38;;;2.60;;
69989;SDS011;57331;52.054;5.294;2022-09-09T10:15:34;9.02;;;2.72;;
69989;SDS011;57331;52.054;5.294;2022-09-09T10:21:17;13.13;;;3.28;;
69989;SDS011;57331;52.054;5.294;2022-09-09T10:24:08;10.93;;;2.80;;
69989;SDS011;57331;52.054;5.294;2022-09-09T10:27:03;8.95;;;2.80;;
69989;SDS011;57331;52.054;5.294;2022-09-09T10:29:37;11.43;;;3.10;;
69989;SDS011;57331;52.054;5.294;2022-09-09T10:32:45;11.27;;;2.58;;
69989;SDS011;57331;52.054;5.294;2022-09-09T10:49:42;12.63;;;2.90;;
69989;SDS011;57331;52.054;5.294;2022-09-09T10:52:32;8.25;;;3.10;;
69989;SDS011;57331;52.054;5.294;2022-09-09T10:55:23;12.98;;;5.57;;
69989;SDS011;57331;52.054;5.294;2022-09-09T10:57:55;13.77;;;3.67;;
69989;SDS011;57331;52.054;5.294;2022-09-09T11:03:05;10.75;;;3.63;;
69989;SDS011;57331;52.054;5.294;2022-09-09T11:05:41;12.27;;;3.55;;
69989;SDS011;57331;52.054;5.294;2022-09-09T11:08:12;9.13;;;4.10;;
69989;SDS011;57331;52.054;5.294;2022-09-09T11:13:49;7.53;;;2.40;;
69989;SDS011;57331;52.054;5.294;2022-09-09T11:19:19;11.48;;;2.75;;
69989;SDS011;57331;52.054;5.294;2022-09-09T11:22:07;5.78;;;3.03;;
69989;SDS011;57331;52.054;5.294;2022-09-09T11:24:59;8.93;;;2.38;;
69989;SDS011;57331;52.054;5.294;2022-09-09T11:27:37;6.30;;;2.42;;
69989;SDS011;57331;52.054;5.294;2022-09-09T11:30:20;11.07;;;2.97;;
69989;SDS011;57331;52.054;5.294;2022-09-09T11:41:53;9.18;;;2.90;;
69989;SDS011;57331;52.054;5.294;2022-09-09T11:44:25;6.90;;;2.90;;
69989;SDS011;57331;52.054;5.294;2022-09-09T11:46:56;11.55;;;2.92;;
69989;SDS011;57331;52.054;5.294;2022-09-09T11:49:27;7.40;;;3.00;;
69989;SDS011;57331;52.054;5.294;2022-09-09T11:51:57;10.57;;;3.38;;
69989;SDS011;57331;52.054;5.294;2022-09-09T11:54:31;7.75;;;3.10;;
69989;SDS011;57331;52.054;5.294;2022-09-09T11:57:44;6.18;;;2.88;;
69989;SDS011;57331;52.054;5.294;2022-09-09T12:00:04;16.42;;;3.78;;
69989;SDS011;57331;52.054;5.294;2022-09-09T12:02:37;7.28;;;2.90;;
69989;SDS011;57331;52.054;5.294;2022-09-09T12:05:16;5.53;;;2.70;;
69989;SDS011;57331;52.054;5.294;2022-09-09T12:10:23;8.98;;;3.00;;
69989;SDS011;57331;52.054;5.294;2022-09-09T12:13:07;5.75;;;2.70;;
69989;SDS011;57331;52.054;5.294;2022-09-09T12:15:48;7.32;;;2.70;;
69989;SDS011;57331;52.054;5.294;2022-09-09T12:21:03;8.43;;;3.38;;
69989;SDS011;57331;52.054;5.294;2022-09-09T12:23:57;8.13;;;3.30;;
69989;SDS011;57331;52.054;5.294;2022-09-09T12:26:50;7.75;;;3.20;;
69989;SDS011;57331;52.054;5.294;2022-09-09T12:29:43;6.85;;;3.13;;
69989;SDS011;57331;52.054;5.294;2022-09-09T12:32:18;10.00;;;3.83;;
69989;SDS011;57331;52.054;5.294;2022-09-09T12:37:29;7.60;;;2.92;;
69989;SDS011;57331;52.054;5.294;2022-09-09T12:40:21;9.35;;;3.30;;
69989;SDS011;57331;52.054;5.294;2022-09-09T12:43:23;10.30;;;3.33;;
69989;SDS011;57331;52.054;5.294;2022-09-09T12:45:49;11.55;;;3.00;;
69989;SDS011;57331;52.054;5.294;2022-09-09T12:48:28;11.55;;;3.20;;
69989;SDS011;57331;52.054;5.294;2022-09-09T12:51:05;8.93;;;3.47;;
69989;SDS011;57331;52.054;5.294;2022-09-09T12:53:42;9.15;;;3.15;;
69989;SDS011;57331;52.054;5.294;2022-09-09T12:56:22;8.13;;;3.17;;
69989;SDS011;57331;52.054;5.294;2022-09-09T12:58:59;8.23;;;3.67;;
69989;SDS011;57331;52.054;5.294;2022-09-09T13:01:28;8.25;;;3.47;;
69989;SDS011;57331;52.054;5.294;2022-09-09T13:03:57;8.57;;;2.65;;
69989;SDS011;57331;52.054;5.294;2022-09-09T13:06:25;10.15;;;2.70;;
69989;SDS011;57331;52.054;5.294;2022-09-09T13:08:55;10.27;;;2.92;;
69989;SDS011;57331;52.054;5.294;2022-09-09T13:11:26;8.00;;;3.00;;
69989;SDS011;57331;52.054;5.294;2022-09-09T13:14:18;9.98;;;3.10;;
69989;SDS011;57331;52.054;5.294;2022-09-09T13:16:57;7.32;;;3.30;;
69989;SDS011;57331;52.054;5.294;2022-09-09T13:19:28;7.55;;;3.20;;
69989;SDS011;57331;52.054;5.294;2022-09-09T13:22:10;8.63;;;3.40;;
69989;SDS011;57331;52.054;5.294;2022-09-09T13:24:45;10.15;;;3.20;;
69989;SDS011;57331;52.054;5.294;2022-09-09T13:27:28;9.00;;;3.13;;
69989;SDS011;57331;52.054;5.294;2022-09-09T13:29:58;10.18;;;3.20;;
69989;SDS011;57331;52.054;5.294;2022-09-09T13:32:26;13.13;;;3.53;;
69989;SDS011;57331;52.054;5.294;2022-09-09T13:34:55;10.63;;;3.53;;
69989;SDS011;57331;52.054;5.294;2022-09-09T13:37:44;11.60;;;3.40;;
69989;SDS011;57331;52.054;5.294;2022-09-09T13:40:18;9.68;;;3.15;;
69989;SDS011;57331;52.054;5.294;2022-09-09T13:42:50;7.85;;;3.00;;
69989;SDS011;57331;52.054;5.294;2022-09-09T13:45:23;7.75;;;3.60;;
69989;SDS011;57331;52.054;5.294;2022-09-09T13:47:53;11.48;;;3.40;;
69989;SDS011;57331;52.054;5.294;2022-09-09T13:52:51;9.77;;;3.05;;
69989;SDS011;57331;52.054;5.294;2022-09-09T13:55:20;9.63;;;3.22;;
69989;SDS011;57331;52.054;5.294;2022-09-09T13:57:52;9.48;;;3.50;;
69989;SDS011;57331;52.054;5.294;2022-09-09T14:00:19;7.50;;;3.10;;
69989;SDS011;57331;52.054;5.294;2022-09-09T14:02:47;6.72;;;3.55;;
69989;SDS011;57331;52.054;5.294;2022-09-09T14:05:15;8.95;;;3.13;;
69989;SDS011;57331;52.054;5.294;2022-09-09T14:07:43;13.15;;;3.33;;
69989;SDS011;57331;52.054;5.294;2022-09-09T14:10:11;7.40;;;3.00;;
69989;SDS011;57331;52.054;5.294;2022-09-09T14:12:38;9.65;;;3.20;;
69989;SDS011;57331;52.054;5.294;2022-09-09T14:15:14;11.05;;;3.38;;
69989;SDS011;57331;52.054;5.294;2022-09-09T14:17:42;7.00;;;3.03;;
69989;SDS011;57331;52.054;5.294;2022-09-09T14:20:09;9.57;;;3.50;;
69989;SDS011;57331;52.054;5.294;2022-09-09T14:22:38;5.72;;;3.05;;
69989;SDS011;57331;52.054;5.294;2022-09-09T14:25:05;7.45;;;3.30;;
69989;SDS011;57331;52.054;5.294;2022-09-09T14:27:32;8.48;;;3.75;;
69989;SDS011;57331;52.054;5.294;2022-09-09T14:29:59;11.13;;;4.07;;
69989;SDS011;57331;52.054;5.294;2022-09-09T14:32:27;9.18;;;3.70;;
69989;SDS011;57331;52.054;5.294;2022-09-09T14:34:55;9.48;;;4.28;;
69989;SDS011;57331;52.054;5.294;2022-09-09T14:37:22;7.17;;;3.60;;
69989;SDS011;57331;52.054;5.294;2022-09-09T14:39:49;13.73;;;4.03;;
69989;SDS011;57331;52.054;5.294;2022-09-09T14:42:17;10.55;;;3.40;;
69989;SDS011;57331;52.054;5.294;2022-09-09T14:44:44;7.40;;;3.55;;
69989;SDS011;57331;52.054;5.294;2022-09-09T14:47:11;12.10;;;3.80;;
69989;SDS011;57331;52.054;5.294;2022-09-09T14:49:38;9.10;;;3.70;;
69989;SDS011;57331;52.054;5.294;2022-09-09T14:52:10;7.53;;;3.00;;
69989;SDS011;57331;52.054;5.294;2022-09-09T14:54:37;7.35;;;3.00;;
69989;SDS011;57331;52.054;5.294;2022-09-09T14:57:04;5.50;;;2.60;;
69989;SDS011;57331;52.054;5.294;2022-09-09T14:59:31;5.38;;;2.60;;
69989;SDS011;57331;52.054;5.294;2022-09-09T15:01:58;6.17;;;2.07;;
69989;SDS011;57331;52.054;5.294;2022-09-09T15:04:30;5.40;;;2.30;;
69989;SDS011;57331;52.054;5.294;2022-09-09T15:06:57;6.05;;;2.10;;
69989;SDS011;57331;52.054;5.294;2022-09-09T15:09:25;5.38;;;2.20;;
69989;SDS011;57331;52.054;5.294;2022-09-09T15:11:52;4.57;;;1.80;;
69989;SDS011;57331;52.054;5.294;2022-09-09T15:14:19;6.03;;;1.97;;
69989;SDS011;57331;52.054;5.294;2022-09-09T15:16:50;6.13;;;2.13;;
69989;SDS011;57331;52.054;5.294;2022-09-09T15:19:17;10.38;;;3.70;;
69989;SDS011;57331;52.054;5.294;2022-09-09T15:21:44;4.90;;;2.10;;
69989;SDS011;57331;52.054;5.294;2022-09-09T15:24:11;4.07;;;2.10;;
69989;SDS011;57331;52.054;5.294;2022-09-09T15:26:41;8.17;;;2.50;;
69989;SDS011;57331;52.054;5.294;2022-09-09T15:29:08;5.40;;;2.33;;
69989;SDS011;57331;52.054;5.294;2022-09-09T15:31:35;4.88;;;2.20;;
69989;SDS011;57331;52.054;5.294;2022-09-09T15:34:03;6.18;;;2.30;;
69989;SDS011;57331;52.054;5.294;2022-09-09T15:36:33;5.15;;;2.28;;
69989;SDS011;57331;52.054;5.294;2022-09-09T15:39:02;6.57;;;2.50;;
69989;SDS011;57331;52.054;5.294;2022-09-09T15:41:30;7.63;;;2.50;;
69989;SDS011;57331;52.054;5.294;2022-09-09T15:43:59;6.18;;;2.50;;
69989;SDS011;57331;52.054;5.294;2022-09-09T15:46:31;7.15;;;2.42;;
69989;SDS011;57331;52.054;5.294;2022-09-09T15:49:02;5.55;;;2.40;;
69989;SDS011;57331;52.054;5.294;2022-09-09T15:51:31;8.27;;;2.70;;
69989;SDS011;57331;52.054;5.294;2022-09-09T15:54:14;6.07;;;2.30;;
69989;SDS011;57331;52.054;5.294;2022-09-09T15:56:44;5.72;;;2.50;;
69989;SDS011;57331;52.054;5.294;2022-09-09T15:59:12;5.10;;;2.45;;
69989;SDS011;57331;52.054;5.294;2022-09-09T16:01:41;9.70;;;3.42;;
69989;SDS011;57331;52.054;5.294;2022-09-09T16:04:08;4.73;;;2.40;;
69989;SDS011;57331;52.054;5.294;2022-09-09T16:06:35;6.78;;;2.20;;
69989;SDS011;57331;52.054;5.294;2022-09-09T16:09:03;6.30;;;3.03;;
69989;SDS011;57331;52.054;5.294;2022-09-09T16:11:33;8.70;;;2.30;;
69989;SDS011;57331;52.054;5.294;2022-09-09T16:14:04;6.22;;;2.15;;
69989;SDS011;57331;52.054;5.294;2022-09-09T16:16:33;8.30;;;2.80;;
69989;SDS011;57331;52.054;5.294;2022-09-09T16:19:08;7.07;;;2.70;;
69989;SDS011;57331;52.054;5.294;2022-09-09T16:21:44;4.40;;;2.30;;
69989;SDS011;57331;52.054;5.294;2022-09-09T16:24:14;6.63;;;2.20;;
69989;SDS011;57331;52.054;5.294;2022-09-09T16:26:44;7.53;;;2.60;;
69989;SDS011;57331;52.054;5.294;2022-09-09T16:29:16;7.87;;;2.57;;
69989;SDS011;57331;52.054;5.294;2022-09-09T16:31:45;6.45;;;2.10;;
69989;SDS011;57331;52.054;5.294;2022-09-09T16:34:13;6.47;;;2.55;;
69989;SDS011;57331;52.054;5.294;2022-09-09T16:36:41;7.57;;;2.50;;
69989;SDS011;57331;52.054;5.294;2022-09-09T16:39:10;5.53;;;2.40;;
69989;SDS011;57331;52.054;5.294;2022-09-09T16:41:39;6.03;;;2.60;;
69989;SDS011;57331;52.054;5.294;2022-09-09T16:44:10;6.30;;;2.40;;
69989;SDS011;57331;52.054;5.294;2022-09-09T16:46:40;6.95;;;2.40;;
69989;SDS011;57331;52.054;5.294;2022-09-09T16:49:12;5.85;;;2.45;;
69989;SDS011;57331;52.054;5.294;2022-09-09T16:51:43;8.43;;;2.88;;
69989;SDS011;57331;52.054;5.294;2022-09-09T16:54:14;6.73;;;3.33;;
69989;SDS011;57331;52.054;5.294;2022-09-09T16:56:44;7.75;;;2.90;;
69989;SDS011;57331;52.054;5.294;2022-09-09T16:59:17;6.43;;;2.88;;
69989;SDS011;57331;52.054;5.294;2022-09-09T17:01:46;11.07;;;3.88;;
69989;SDS011;57331;52.054;5.294;2022-09-09T17:04:15;13.27;;;3.42;;
69989;SDS011;57331;52.054;5.294;2022-09-09T17:06:47;9.93;;;3.77;;
69989;SDS011;57331;52.054;5.294;2022-09-09T17:09:16;11.30;;;3.30;;
69989;SDS011;57331;52.054;5.294;2022-09-09T17:11:44;14.30;;;3.50;;
69989;SDS011;57331;52.054;5.294;2022-09-09T17:14:13;6.88;;;3.20;;
69989;SDS011;57331;52.054;5.294;2022-09-09T17:16:41;9.43;;;3.05;;
69989;SDS011;57331;52.054;5.294;2022-09-09T17:19:11;10.10;;;3.47;;
69989;SDS011;57331;52.054;5.294;2022-09-09T17:21:39;8.98;;;3.15;;
69989;SDS011;57331;52.054;5.294;2022-09-09T17:24:28;11.55;;;3.50;;
69989;SDS011;57331;52.054;5.294;2022-09-09T17:26:55;8.50;;;3.30;;
69989;SDS011;57331;52.054;5.294;2022-09-09T17:29:23;8.82;;;3.40;;
69989;SDS011;57331;52.054;5.294;2022-09-09T17:31:51;6.80;;;3.40;;
69989;SDS011;57331;52.054;5.294;2022-09-09T17:34:18;6.63;;;3.13;;
69989;SDS011;57331;52.054;5.294;2022-09-09T17:36:45;7.80;;;2.95;;
69989;SDS011;57331;52.054;5.294;2022-09-09T17:39:12;9.38;;;3.50;;
69989;SDS011;57331;52.054;5.294;2022-09-09T17:41:40;7.85;;;3.08;;
69989;SDS011;57331;52.054;5.294;2022-09-09T17:44:07;6.00;;;3.23;;
69989;SDS011;57331;52.054;5.294;2022-09-09T17:46:36;7.97;;;3.28;;
69989;SDS011;57331;52.054;5.294;2022-09-09T17:49:09;8.38;;;2.92;;
69989;SDS011;57331;52.054;5.294;2022-09-09T17:51:42;5.10;;;2.78;;
69989;SDS011;57331;52.054;5.294;2022-09-09T17:54:14;9.82;;;3.17;;
69989;SDS011;57331;52.054;5.294;2022-09-09T17:56:45;6.10;;;2.63;;